PILOTS ONLINE: 564    ATC ONLINE: 70

Location

IATA SSG
City Malabo
Country  Equatorial Guinea
Latitude 3° 45' 18" N
Longitude 8° 42' 31" E
Elevation 76 ft
Type Medium Airport

Weather

METAR
2014/07/12 15:00
FGSL 121500Z 22010KT 9999 FEW010 FEW020CB 28/23 Q1013 NOSIG
TAF
2014/07/12 12:06
TAF FGSL 121100Z 1212/1318 24006KT 9999 SCT010 FEW018CB 
      TEMPO 1212/1218 3000 -TSRADZ BKN008 FEW016CB 
      TEMPO 1222/1306 TS BKN010 FEW018CB 
      TEMPO 1308/1316 3000 -TSRADZ BKN008 FEW016CB

Runways

05/23 9647 ft / 151 ft

Outbound flights

CEL50X  FPST - São Tomé, Sao Tome and Principe
Samuel Mulhare

Inbound flights


Spotted incorrect airport information? Please login with your VATSIM ID.